sensor_id;sensor_type;location;lat;lon;timestamp;pressure;altitude;pressure_sealevel;temperature;humidity
59873;BME280;50750;51.636;4.948;2022-10-30T00:01:03;101808.71;;;19.04;67.59
59873;BME280;50750;51.636;4.948;2022-10-30T00:03:38;101806.64;;;19.03;67.71
59873;BME280;50750;51.636;4.948;2022-10-30T00:06:05;101809.13;;;19.03;67.57
59873;BME280;50750;51.636;4.948;2022-10-30T00:08:31;101808.77;;;19.03;67.65
59873;BME280;50750;51.636;4.948;2022-10-30T00:11:10;101804.47;;;19.04;67.57
59873;BME280;50750;51.636;4.948;2022-10-30T00:13:38;101805.88;;;19.04;67.55
59873;BME280;50750;51.636;4.948;2022-10-30T00:16:06;101807.11;;;19.04;67.68
59873;BME280;50750;51.636;4.948;2022-10-30T00:18:37;101805.19;;;19.04;67.63
59873;BME280;50750;51.636;4.948;2022-10-30T00:21:12;101812.23;;;19.05;67.55
59873;BME280;50750;51.636;4.948;2022-10-30T00:23:45;101808.56;;;19.04;67.66
59873;BME280;50750;51.636;4.948;2022-10-30T00:26:12;101810.88;;;19.04;67.66
59873;BME280;50750;51.636;4.948;2022-10-30T00:28:39;101805.38;;;19.04;67.64
59873;BME280;50750;51.636;4.948;2022-10-30T00:31:06;101805.38;;;19.04;67.58
59873;BME280;50750;51.636;4.948;2022-10-30T00:33:33;101799.50;;;19.04;67.54
59873;BME280;50750;51.636;4.948;2022-10-30T00:35:59;101799.68;;;19.04;67.52
59873;BME280;50750;51.636;4.948;2022-10-30T00:38:26;101798.78;;;19.04;67.56
59873;BME280;50750;51.636;4.948;2022-10-30T00:40:53;101800.38;;;19.04;67.63
59873;BME280;50750;51.636;4.948;2022-10-30T00:45:52;101804.15;;;19.04;67.63
59873;BME280;50750;51.636;4.948;2022-10-30T00:48:23;101805.41;;;19.03;67.46
59873;BME280;50750;51.636;4.948;2022-10-30T00:50:52;101803.13;;;19.03;67.50
59873;BME280;50750;51.636;4.948;2022-10-30T00:53:19;101800.48;;;19.02;67.53
59873;BME280;50750;51.636;4.948;2022-10-30T00:55:54;101798.69;;;19.03;67.53
59873;BME280;50750;51.636;4.948;2022-10-30T00:58:43;101800.11;;;19.03;67.44
59873;BME280;50750;51.636;4.948;2022-10-30T01:01:16;101803.09;;;19.03;67.55
59873;BME280;50750;51.636;4.948;2022-10-30T01:03:45;101807.32;;;19.04;67.49
59873;BME280;50750;51.636;4.948;2022-10-30T01:06:15;101803.61;;;19.03;67.50
59873;BME280;50750;51.636;4.948;2022-10-30T01:08:43;101802.72;;;19.04;67.37
59873;BME280;50750;51.636;4.948;2022-10-30T01:11:10;101800.41;;;19.03;67.53
59873;BME280;50750;51.636;4.948;2022-10-30T01:13:38;101799.39;;;19.03;67.47
59873;BME280;50750;51.636;4.948;2022-10-30T01:18:58;101798.37;;;19.02;67.55
59873;BME280;50750;51.636;4.948;2022-10-30T01:27:03;101809.55;;;19.02;67.49
59873;BME280;50750;51.636;4.948;2022-10-30T01:38:11;101823.87;;;18.99;67.39
59873;BME280;50750;51.636;4.948;2022-10-30T01:40:42;101819.45;;;18.99;67.32
59873;BME280;50750;51.636;4.948;2022-10-30T01:43:09;101823.35;;;19.00;67.26
59873;BME280;50750;51.636;4.948;2022-10-30T01:53:34;101816.77;;;18.99;67.30
59873;BME280;50750;51.636;4.948;2022-10-30T01:58:54;101815.58;;;18.98;67.24
59873;BME280;50750;51.636;4.948;2022-10-30T02:01:23;101807.13;;;18.97;67.25
59873;BME280;50750;51.636;4.948;2022-10-30T02:03:50;101808.53;;;18.97;67.29
59873;BME280;50750;51.636;4.948;2022-10-30T02:06:16;101816.52;;;18.97;67.34
59873;BME280;50750;51.636;4.948;2022-10-30T02:08:43;101810.14;;;18.97;67.30
59873;BME280;50750;51.636;4.948;2022-10-30T02:11:10;101815.80;;;18.98;67.28
59873;BME280;50750;51.636;4.948;2022-10-30T02:13:37;101820.04;;;18.98;67.30
59873;BME280;50750;51.636;4.948;2022-10-30T02:16:04;101817.73;;;18.98;67.29
59873;BME280;50750;51.636;4.948;2022-10-30T02:18:31;101814.73;;;18.97;67.16
59873;BME280;50750;51.636;4.948;2022-10-30T02:20:58;101817.45;;;18.96;67.25
59873;BME280;50750;51.636;4.948;2022-10-30T02:23:24;101818.16;;;18.96;67.19
59873;BME280;50750;51.636;4.948;2022-10-30T02:25:51;101819.23;;;18.96;67.22
59873;BME280;50750;51.636;4.948;2022-10-30T02:28:17;101817.80;;;18.96;67.26
59873;BME280;50750;51.636;4.948;2022-10-30T02:30:44;101819.03;;;18.97;67.23
59873;BME280;50750;51.636;4.948;2022-10-30T02:33:10;101819.92;;;18.96;67.19
59873;BME280;50750;51.636;4.948;2022-10-30T02:35:37;101816.20;;;18.96;67.21
59873;BME280;50750;51.636;4.948;2022-10-30T02:38:03;101819.20;;;18.97;67.19
59873;BME280;50750;51.636;4.948;2022-10-30T02:40:30;101820.65;;;18.96;67.25
59873;BME280;50750;51.636;4.948;2022-10-30T02:42:56;101824.77;;;18.95;67.11
59873;BME280;50750;51.636;4.948;2022-10-30T02:45:23;101825.84;;;18.95;67.23
59873;BME280;50750;51.636;4.948;2022-10-30T02:47:49;101823.56;;;18.95;67.28
59873;BME280;50750;51.636;4.948;2022-10-30T02:50:16;101824.59;;;18.96;67.21
59873;BME280;50750;51.636;4.948;2022-10-30T02:52:42;101826.02;;;18.95;67.10
59873;BME280;50750;51.636;4.948;2022-10-30T02:55:09;101833.09;;;18.96;67.17
59873;BME280;50750;51.636;4.948;2022-10-30T02:57:35;101832.91;;;18.96;67.18
59873;BME280;50750;51.636;4.948;2022-10-30T03:00:03;101835.38;;;18.96;67.23
59873;BME280;50750;51.636;4.948;2022-10-30T03:02:30;101832.92;;;18.96;67.26
59873;BME280;50750;51.636;4.948;2022-10-30T03:04:57;101833.45;;;18.96;67.24
59873;BME280;50750;51.636;4.948;2022-10-30T03:07:23;101834.17;;;18.95;67.14
59873;BME280;50750;51.636;4.948;2022-10-30T03:09:50;101833.85;;;18.95;67.10
59873;BME280;50750;51.636;4.948;2022-10-30T03:12:17;101834.77;;;18.95;67.18
59873;BME280;50750;51.636;4.948;2022-10-30T03:14:44;101834.94;;;18.95;67.17
59873;BME280;50750;51.636;4.948;2022-10-30T03:17:10;101833.70;;;18.94;67.22
59873;BME280;50750;51.636;4.948;2022-10-30T03:19:37;101832.98;;;18.95;67.16
59873;BME280;50750;51.636;4.948;2022-10-30T03:22:03;101835.64;;;18.95;67.32
59873;BME280;50750;51.636;4.948;2022-10-30T03:24:30;101834.55;;;18.95;67.09
59873;BME280;50750;51.636;4.948;2022-10-30T03:26:56;101836.85;;;18.95;67.09
59873;BME280;50750;51.636;4.948;2022-10-30T03:29:22;101837.23;;;18.95;67.12
59873;BME280;50750;51.636;4.948;2022-10-30T03:31:49;101840.26;;;18.95;67.25
59873;BME280;50750;51.636;4.948;2022-10-30T03:34:15;101843.64;;;18.94;67.23
59873;BME280;50750;51.636;4.948;2022-10-30T03:36:42;101843.15;;;18.93;67.17
59873;BME280;50750;51.636;4.948;2022-10-30T03:39:08;101844.59;;;18.93;67.11
59873;BME280;50750;51.636;4.948;2022-10-30T03:41:35;101842.83;;;18.93;67.17
59873;BME280;50750;51.636;4.948;2022-10-30T03:44:01;101845.66;;;18.93;67.25
59873;BME280;50750;51.636;4.948;2022-10-30T03:46:28;101840.70;;;18.93;67.22
59873;BME280;50750;51.636;4.948;2022-10-30T03:48:56;101837.48;;;18.93;67.23
59873;BME280;50750;51.636;4.948;2022-10-30T03:51:23;101838.36;;;18.93;67.16
59873;BME280;50750;51.636;4.948;2022-10-30T03:53:49;101838.36;;;18.93;67.24
59873;BME280;50750;51.636;4.948;2022-10-30T03:56:16;101835.89;;;18.93;67.23
59873;BME280;50750;51.636;4.948;2022-10-30T03:58:42;101823.68;;;18.93;67.17
59873;BME280;50750;51.636;4.948;2022-10-30T04:01:09;101825.11;;;18.92;67.24
59873;BME280;50750;51.636;4.948;2022-10-30T04:03:35;101830.10;;;18.92;67.18
59873;BME280;50750;51.636;4.948;2022-10-30T04:06:02;101830.67;;;18.91;67.15
59873;BME280;50750;51.636;4.948;2022-10-30T04:08:29;101828.37;;;18.91;67.24
59873;BME280;50750;51.636;4.948;2022-10-30T04:10:55;101823.96;;;18.90;67.18
59873;BME280;50750;51.636;4.948;2022-10-30T04:13:22;101820.37;;;18.92;67.13
59873;BME280;50750;51.636;4.948;2022-10-30T04:15:48;101822.48;;;18.92;67.08
59873;BME280;50750;51.636;4.948;2022-10-30T04:18:16;101821.05;;;18.92;67.13
59873;BME280;50750;51.636;4.948;2022-10-30T04:20:43;101820.35;;;18.92;67.14
59873;BME280;50750;51.636;4.948;2022-10-30T04:23:16;101826.38;;;18.92;67.25
59873;BME280;50750;51.636;4.948;2022-10-30T04:25:43;101819.66;;;18.91;67.17
59873;BME280;50750;51.636;4.948;2022-10-30T04:28:11;101814.34;;;18.91;67.18
59873;BME280;50750;51.636;4.948;2022-10-30T04:30:37;101816.35;;;18.90;67.23
59873;BME280;50750;51.636;4.948;2022-10-30T04:33:09;101820.63;;;18.90;67.17
59873;BME280;50750;51.636;4.948;2022-10-30T04:35:36;101820.45;;;18.90;67.13
59873;BME280;50750;51.636;4.948;2022-10-30T04:38:09;101822.08;;;18.89;67.13
59873;BME280;50750;51.636;4.948;2022-10-30T04:40:38;101819.77;;;18.89;67.23
59873;BME280;50750;51.636;4.948;2022-10-30T04:43:05;101818.50;;;18.90;67.12
59873;BME280;50750;51.636;4.948;2022-10-30T04:45:33;101819.90;;;18.90;67.12
59873;BME280;50750;51.636;4.948;2022-10-30T04:48:06;101826.27;;;18.90;67.17
59873;BME280;50750;51.636;4.948;2022-10-30T04:50:33;101828.77;;;18.90;67.10
59873;BME280;50750;51.636;4.948;2022-10-30T04:53:02;101831.09;;;18.90;67.19
59873;BME280;50750;51.636;4.948;2022-10-30T04:55:29;101833.80;;;18.89;67.17
59873;BME280;50750;51.636;4.948;2022-10-30T04:57:59;101835.94;;;18.89;67.27
59873;BME280;50750;51.636;4.948;2022-10-30T05:00:28;101835.63;;;18.88;67.21
59873;BME280;50750;51.636;4.948;2022-10-30T05:03:17;101834.56;;;18.88;67.11
59873;BME280;50750;51.636;4.948;2022-10-30T05:05:44;101831.02;;;18.88;67.08
59873;BME280;50750;51.636;4.948;2022-10-30T05:08:11;101826.58;;;18.88;67.24
59873;BME280;50750;51.636;4.948;2022-10-30T05:10:38;101820.16;;;18.88;67.07
59873;BME280;50750;51.636;4.948;2022-10-30T05:13:06;101823.33;;;18.89;67.05
59873;BME280;50750;51.636;4.948;2022-10-30T05:15:34;101824.20;;;18.89;67.06
59873;BME280;50750;51.636;4.948;2022-10-30T05:18:00;101825.10;;;18.89;67.14
59873;BME280;50750;51.636;4.948;2022-10-30T05:20:27;101824.25;;;18.88;67.21
59873;BME280;50750;51.636;4.948;2022-10-30T05:22:57;101821.43;;;18.88;66.97
59873;BME280;50750;51.636;4.948;2022-10-30T05:25:25;101819.51;;;18.87;67.21
59873;BME280;50750;51.636;4.948;2022-10-30T05:28:02;101820.08;;;18.87;67.24
59873;BME280;50750;51.636;4.948;2022-10-30T05:30:31;101819.02;;;18.87;66.98
59873;BME280;50750;51.636;4.948;2022-10-30T05:32:59;101817.96;;;18.86;67.14
59873;BME280;50750;51.636;4.948;2022-10-30T05:35:27;101822.05;;;18.86;67.15
59873;BME280;50750;51.636;4.948;2022-10-30T05:37:53;101816.73;;;18.86;67.15
59873;BME280;50750;51.636;4.948;2022-10-30T05:40:20;101817.25;;;18.86;67.21
59873;BME280;50750;51.636;4.948;2022-10-30T05:42:47;101815.85;;;18.86;67.18
59873;BME280;50750;51.636;4.948;2022-10-30T05:45:14;101814.46;;;18.85;67.26
59873;BME280;50750;51.636;4.948;2022-10-30T05:47:41;101808.98;;;18.85;67.15
59873;BME280;50750;51.636;4.948;2022-10-30T05:50:08;101808.14;;;18.84;67.16
59873;BME280;50750;51.636;4.948;2022-10-30T05:52:35;101804.24;;;18.84;67.09
59873;BME280;50750;51.636;4.948;2022-10-30T05:55:02;101803.56;;;18.83;67.06
59873;BME280;50750;51.636;4.948;2022-10-30T05:57:29;101806.39;;;18.84;67.13
59873;BME280;50750;51.636;4.948;2022-10-30T05:59:58;101809.55;;;18.84;67.15
59873;BME280;50750;51.636;4.948;2022-10-30T06:02:24;101810.42;;;18.84;67.17
59873;BME280;50750;51.636;4.948;2022-10-30T06:04:51;101815.77;;;18.84;67.07
59873;BME280;50750;51.636;4.948;2022-10-30T06:07:17;101817.36;;;18.84;67.06
59873;BME280;50750;51.636;4.948;2022-10-30T06:09:44;101824.65;;;18.84;67.18
59873;BME280;50750;51.636;4.948;2022-10-30T06:12:10;101824.66;;;18.83;67.11
59873;BME280;50750;51.636;4.948;2022-10-30T06:14:37;101824.06;;;18.81;67.13
59873;BME280;50750;51.636;4.948;2022-10-30T06:17:03;101821.92;;;18.82;67.26
59873;BME280;50750;51.636;4.948;2022-10-30T06:19:30;101822.46;;;18.82;67.19
59873;BME280;50750;51.636;4.948;2022-10-30T06:21:56;101819.29;;;18.81;67.09
59873;BME280;50750;51.636;4.948;2022-10-30T06:24:23;101818.20;;;18.81;67.13
59873;BME280;50750;51.636;4.948;2022-10-30T06:26:49;101813.08;;;18.81;67.15
59873;BME280;50750;51.636;4.948;2022-10-30T06:29:16;101815.88;;;18.82;67.26
59873;BME280;50750;51.636;4.948;2022-10-30T06:31:42;101815.71;;;18.82;67.09
59873;BME280;50750;51.636;4.948;2022-10-30T06:34:09;101819.44;;;18.82;67.13
59873;BME280;50750;51.636;4.948;2022-10-30T06:36:35;101816.82;;;18.81;67.13
59873;BME280;50750;51.636;4.948;2022-10-30T06:39:02;101821.27;;;18.81;67.14
59873;BME280;50750;51.636;4.948;2022-10-30T06:41:28;101817.74;;;18.80;67.09
59873;BME280;50750;51.636;4.948;2022-10-30T06:43:55;101811.36;;;18.80;67.12
59873;BME280;50750;51.636;4.948;2022-10-30T06:46:21;101809.26;;;18.79;67.14
59873;BME280;50750;51.636;4.948;2022-10-30T06:48:48;101813.02;;;18.79;67.13
59873;BME280;50750;51.636;4.948;2022-10-30T06:51:15;101815.30;;;18.79;67.12
59873;BME280;50750;51.636;4.948;2022-10-30T06:53:42;101818.30;;;18.80;67.18
59873;BME280;50750;51.636;4.948;2022-10-30T06:56:08;101823.46;;;18.80;67.21
59873;BME280;50750;51.636;4.948;2022-10-30T06:58:35;101824.52;;;18.79;67.18
59873;BME280;50750;51.636;4.948;2022-10-30T07:01:05;101824.70;;;18.79;67.16
59873;BME280;50750;51.636;4.948;2022-10-30T07:03:33;101820.64;;;18.79;67.20
59873;BME280;50750;51.636;4.948;2022-10-30T07:06:00;101817.11;;;18.79;67.20
59873;BME280;50750;51.636;4.948;2022-10-30T07:08:26;101813.59;;;18.78;67.22
59873;BME280;50750;51.636;4.948;2022-10-30T07:10:55;101809.70;;;18.77;67.10
59873;BME280;50750;51.636;4.948;2022-10-30T07:13:22;101810.98;;;18.77;67.10
59873;BME280;50750;51.636;4.948;2022-10-30T07:15:48;101806.39;;;18.76;67.26
59873;BME280;50750;51.636;4.948;2022-10-30T07:18:15;101804.21;;;18.77;67.16
59873;BME280;50750;51.636;4.948;2022-10-30T07:20:41;101798.35;;;18.77;67.11
59873;BME280;50750;51.636;4.948;2022-10-30T07:23:08;101799.41;;;18.78;67.12
59873;BME280;50750;51.636;4.948;2022-10-30T07:25:34;101803.14;;;18.77;67.07
59873;BME280;50750;51.636;4.948;2022-10-30T07:28:00;101809.86;;;18.78;67.12
59873;BME280;50750;51.636;4.948;2022-10-30T07:30:27;101810.94;;;18.78;67.12
59873;BME280;50750;51.636;4.948;2022-10-30T07:33:02;101812.92;;;18.77;67.07
59873;BME280;50750;51.636;4.948;2022-10-30T07:35:30;101810.29;;;18.76;67.01
59873;BME280;50750;51.636;4.948;2022-10-30T07:38:04;101810.14;;;18.76;67.09
59873;BME280;50750;51.636;4.948;2022-10-30T07:40:32;101813.88;;;18.75;67.11
59873;BME280;50750;51.636;4.948;2022-10-30T07:43:00;101817.95;;;18.75;67.16
59873;BME280;50750;51.636;4.948;2022-10-30T07:45:27;101817.58;;;18.76;67.05
59873;BME280;50750;51.636;4.948;2022-10-30T07:47:54;101817.56;;;18.76;67.14
59873;BME280;50750;51.636;4.948;2022-10-30T07:50:21;101813.52;;;18.76;67.07
59873;BME280;50750;51.636;4.948;2022-10-30T07:52:47;101808.90;;;18.76;67.13
59873;BME280;50750;51.636;4.948;2022-10-30T07:55:14;101808.04;;;18.75;67.04
59873;BME280;50750;51.636;4.948;2022-10-30T07:57:41;101809.27;;;18.75;67.22
59873;BME280;50750;51.636;4.948;2022-10-30T08:00:13;101807.88;;;18.74;67.12
59873;BME280;50750;51.636;4.948;2022-10-30T08:02:40;101809.45;;;18.75;67.09
59873;BME280;50750;51.636;4.948;2022-10-30T08:05:08;101809.83;;;18.75;67.11
59873;BME280;50750;51.636;4.948;2022-10-30T08:07:37;101805.02;;;18.75;67.17
59873;BME280;50750;51.636;4.948;2022-10-30T08:10:05;101803.58;;;18.76;67.19
59873;BME280;50750;51.636;4.948;2022-10-30T08:12:33;101801.45;;;18.76;67.05
59873;BME280;50750;51.636;4.948;2022-10-30T08:15:02;101808.52;;;18.76;67.19
59873;BME280;50750;51.636;4.948;2022-10-30T08:17:28;101815.27;;;18.76;67.02
59873;BME280;50750;51.636;4.948;2022-10-30T08:19:55;101821.84;;;18.76;67.08
59873;BME280;50750;51.636;4.948;2022-10-30T08:22:22;101824.88;;;18.75;67.04
59873;BME280;50750;51.636;4.948;2022-10-30T08:24:49;101820.65;;;18.75;67.08
59873;BME280;50750;51.636;4.948;2022-10-30T08:27:16;101824.38;;;18.74;67.05
59873;BME280;50750;51.636;4.948;2022-10-30T08:29:42;101829.17;;;18.74;67.23
59873;BME280;50750;51.636;4.948;2022-10-30T08:32:09;101828.64;;;18.74;67.17
59873;BME280;50750;51.636;4.948;2022-10-30T08:34:35;101829.16;;;18.75;67.18
59873;BME280;50750;51.636;4.948;2022-10-30T08:37:02;101826.17;;;18.74;67.12
59873;BME280;50750;51.636;4.948;2022-10-30T08:39:28;101830.05;;;18.75;67.15
59873;BME280;50750;51.636;4.948;2022-10-30T08:41:58;101826.31;;;18.75;67.17
59873;BME280;50750;51.636;4.948;2022-10-30T08:44:25;101826.33;;;18.74;67.14
59873;BME280;50750;51.636;4.948;2022-10-30T08:46:51;101822.08;;;18.74;67.19
59873;BME280;50750;51.636;4.948;2022-10-30T08:49:18;101820.14;;;18.74;67.22
59873;BME280;50750;51.636;4.948;2022-10-30T08:51:44;101824.23;;;18.74;67.13
59873;BME280;50750;51.636;4.948;2022-10-30T08:54:11;101818.24;;;18.73;67.29
59873;BME280;50750;51.636;4.948;2022-10-30T08:56:37;101811.48;;;18.73;67.25
59873;BME280;50750;51.636;4.948;2022-10-30T08:59:04;101805.26;;;18.73;67.20
59873;BME280;50750;51.636;4.948;2022-10-30T09:01:30;101797.95;;;18.74;67.21
59873;BME280;50750;51.636;4.948;2022-10-30T09:03:57;101795.46;;;18.74;67.28
59873;BME280;50750;51.636;4.948;2022-10-30T09:06:23;101799.55;;;18.74;67.13
59873;BME280;50750;51.636;4.948;2022-10-30T09:08:50;101802.54;;;18.75;67.21
59873;BME280;50750;51.636;4.948;2022-10-30T09:11:16;101806.45;;;18.75;67.21
59873;BME280;50750;51.636;4.948;2022-10-30T09:13:43;101801.33;;;18.74;67.18
59873;BME280;50750;51.636;4.948;2022-10-30T09:16:10;101796.89;;;18.74;67.28
59873;BME280;50750;51.636;4.948;2022-10-30T09:18:36;101803.48;;;18.73;67.19
59873;BME280;50750;51.636;4.948;2022-10-30T09:21:03;101810.73;;;18.74;67.43
59873;BME280;50750;51.636;4.948;2022-10-30T09:23:29;101812.02;;;18.73;67.16
59873;BME280;50750;51.636;4.948;2022-10-30T09:25:56;101813.95;;;18.73;67.19
59873;BME280;50750;51.636;4.948;2022-10-30T09:28:23;101814.46;;;18.74;67.34
59873;BME280;50750;51.636;4.948;2022-10-30T09:30:49;101814.45;;;18.74;67.25
59873;BME280;50750;51.636;4.948;2022-10-30T09:33:18;101818.52;;;18.74;67.22
59873;BME280;50750;51.636;4.948;2022-10-30T09:35:44;101824.54;;;18.75;67.22
59873;BME280;50750;51.636;4.948;2022-10-30T09:38:11;101825.96;;;18.75;67.25
59873;BME280;50750;51.636;4.948;2022-10-30T09:59:21;101827.79;;;18.73;67.37
59873;BME280;50750;51.636;4.948;2022-10-30T10:04:47;101828.98;;;18.75;67.38
59873;BME280;50750;51.636;4.948;2022-10-30T10:07:35;101826.84;;;18.75;67.24
59873;BME280;50750;51.636;4.948;2022-10-30T10:10:08;101827.17;;;18.76;67.38
59873;BME280;50750;51.636;4.948;2022-10-30T10:12:45;101827.36;;;18.76;67.30
59873;BME280;50750;51.636;4.948;2022-10-30T10:17:53;101814.07;;;18.75;67.34
59873;BME280;50750;51.636;4.948;2022-10-30T10:20:32;101811.33;;;18.77;67.36
59873;BME280;50750;51.636;4.948;2022-10-30T10:23:08;101810.25;;;18.77;67.35
59873;BME280;50750;51.636;4.948;2022-10-30T10:25:38;101812.36;;;18.78;67.28
59873;BME280;50750;51.636;4.948;2022-10-30T10:31:14;101813.23;;;18.78;67.36
59873;BME280;50750;51.636;4.948;2022-10-30T10:33:49;101812.16;;;18.78;67.29
59873;BME280;50750;51.636;4.948;2022-10-30T10:36:41;101810.92;;;18.78;67.35
59873;BME280;50750;51.636;4.948;2022-10-30T10:47:23;101810.75;;;18.78;67.21
59873;BME280;50750;51.636;4.948;2022-10-30T10:50:15;101812.33;;;18.78;67.32
59873;BME280;50750;51.636;4.948;2022-10-30T10:52:55;101805.04;;;18.79;67.30
59873;BME280;50750;51.636;4.948;2022-10-30T10:55:27;101797.39;;;18.79;67.16
59873;BME280;50750;51.636;4.948;2022-10-30T10:57:57;101798.12;;;18.79;67.26
59873;BME280;50750;51.636;4.948;2022-10-30T11:00:28;101795.30;;;18.78;67.33
59873;BME280;50750;51.636;4.948;2022-10-30T11:05:42;101797.20;;;18.79;67.28
59873;BME280;50750;51.636;4.948;2022-10-30T11:08:30;101792.77;;;18.79;67.23
59873;BME280;50750;51.636;4.948;2022-10-30T11:11:03;101787.07;;;18.80;67.25
59873;BME280;50750;51.636;4.948;2022-10-30T11:13:36;101782.77;;;18.80;67.26
59873;BME280;50750;51.636;4.948;2022-10-30T11:16:28;101780.11;;;18.80;67.19
59873;BME280;50750;51.636;4.948;2022-10-30T11:19:02;101777.23;;;18.81;67.23
59873;BME280;50750;51.636;4.948;2022-10-30T11:21:32;101777.58;;;18.81;67.39
59873;BME280;50750;51.636;4.948;2022-10-30T11:24:00;101774.74;;;18.81;67.27
59873;BME280;50750;51.636;4.948;2022-10-30T11:26:29;101775.79;;;18.82;67.19
59873;BME280;50750;51.636;4.948;2022-10-30T11:31:38;101777.22;;;18.82;67.31
59873;BME280;50750;51.636;4.948;2022-10-30T11:36:45;101775.22;;;18.82;67.28
59873;BME280;50750;51.636;4.948;2022-10-30T11:39:20;101773.23;;;18.83;67.34
59873;BME280;50750;51.636;4.948;2022-10-30T11:42:02;101772.32;;;18.84;67.27
59873;BME280;50750;51.636;4.948;2022-10-30T11:44:35;101776.57;;;18.84;67.31
59873;BME280;50750;51.636;4.948;2022-10-30T11:47:04;101776.20;;;18.84;67.27
59873;BME280;50750;51.636;4.948;2022-10-30T11:49:39;101775.25;;;18.85;67.24
59873;BME280;50750;51.636;4.948;2022-10-30T11:52:08;101772.08;;;18.85;67.36
59873;BME280;50750;51.636;4.948;2022-10-30T11:54:38;101767.86;;;18.84;67.32
59873;BME280;50750;51.636;4.948;2022-10-30T11:57:33;101770.64;;;18.85;67.31
59873;BME280;50750;51.636;4.948;2022-10-30T12:00:02;101772.95;;;18.85;67.38
59873;BME280;50750;51.636;4.948;2022-10-30T12:02:39;101773.12;;;18.85;67.34
59873;BME280;50750;51.636;4.948;2022-10-30T12:10:39;101769.46;;;18.87;67.47
59873;BME280;50750;51.636;4.948;2022-10-30T12:13:13;101770.00;;;18.87;67.38
59873;BME280;50750;51.636;4.948;2022-10-30T12:15:40;101765.55;;;18.88;67.42
59873;BME280;50750;51.636;4.948;2022-10-30T12:18:18;101766.95;;;18.88;67.33
59873;BME280;50750;51.636;4.948;2022-10-30T12:20:48;101770.48;;;18.88;67.39
59873;BME280;50750;51.636;4.948;2022-10-30T12:23:19;101769.77;;;18.88;67.38
59873;BME280;50750;51.636;4.948;2022-10-30T12:25:48;101764.06;;;18.89;67.31
59873;BME280;50750;51.636;4.948;2022-10-30T12:28:24;101762.25;;;18.89;67.30
59873;BME280;50750;51.636;4.948;2022-10-30T12:31:12;101764.14;;;18.91;67.37
59873;BME280;50750;51.636;4.948;2022-10-30T12:33:45;101756.48;;;18.91;67.37
59873;BME280;50750;51.636;4.948;2022-10-30T12:36:19;101757.15;;;18.92;67.26
59873;BME280;50750;51.636;4.948;2022-10-30T12:39:11;101752.89;;;18.92;67.31
59873;BME280;50750;51.636;4.948;2022-10-30T12:42:04;101747.89;;;18.93;67.29
59873;BME280;50750;51.636;4.948;2022-10-30T12:44:35;101744.90;;;18.92;67.37
59873;BME280;50750;51.636;4.948;2022-10-30T12:47:30;101741.22;;;18.91;67.33
59873;BME280;50750;51.636;4.948;2022-10-30T12:50:18;101741.55;;;18.92;67.41
59873;BME280;50750;51.636;4.948;2022-10-30T12:53:05;101746.14;;;18.92;67.40
59873;BME280;50750;51.636;4.948;2022-10-30T12:55:40;101745.02;;;18.93;67.48
59873;BME280;50750;51.636;4.948;2022-10-30T12:58:22;101745.34;;;18.94;67.40
59873;BME280;50750;51.636;4.948;2022-10-30T13:03:29;101748.13;;;18.95;67.59
59873;BME280;50750;51.636;4.948;2022-10-30T13:06:09;101749.02;;;18.95;67.79
59873;BME280;50750;51.636;4.948;2022-10-30T13:13:59;101745.72;;;18.97;67.77
59873;BME280;50750;51.636;4.948;2022-10-30T13:16:29;101742.98;;;18.98;67.81
59873;BME280;50750;51.636;4.948;2022-10-30T13:19:00;101745.45;;;18.98;67.86
59873;BME280;50750;51.636;4.948;2022-10-30T13:21:37;101750.94;;;18.99;67.84
59873;BME280;50750;51.636;4.948;2022-10-30T13:24:16;101748.08;;;19.00;67.82
59873;BME280;50750;51.636;4.948;2022-10-30T13:29:53;101745.95;;;18.99;67.89
59873;BME280;50750;51.636;4.948;2022-10-30T13:35:32;101747.73;;;19.00;67.78
59873;BME280;50750;51.636;4.948;2022-10-30T13:40:42;101748.56;;;19.01;67.69
59873;BME280;50750;51.636;4.948;2022-10-30T13:46:02;101755.11;;;19.01;67.64
59873;BME280;50750;51.636;4.948;2022-10-30T13:51:49;101752.63;;;19.01;67.68
59873;BME280;50750;51.636;4.948;2022-10-30T13:54:29;101753.38;;;19.00;67.61
59873;BME280;50750;51.636;4.948;2022-10-30T13:57:03;101755.70;;;19.00;67.61
59873;BME280;50750;51.636;4.948;2022-10-30T13:59:43;101744.32;;;19.00;67.62
59873;BME280;50750;51.636;4.948;2022-10-30T14:07:31;101734.61;;;19.03;67.70
59873;BME280;50750;51.636;4.948;2022-10-30T14:13:06;101738.95;;;19.04;67.62
59873;BME280;50750;51.636;4.948;2022-10-30T14:15:42;101747.10;;;19.04;67.63
59873;BME280;50750;51.636;4.948;2022-10-30T14:20:46;101754.93;;;19.04;67.50
59873;BME280;50750;51.636;4.948;2022-10-30T14:23:22;101753.50;;;19.04;67.53
59873;BME280;50750;51.636;4.948;2022-10-30T14:28:33;101756.86;;;19.05;67.62
59873;BME280;50750;51.636;4.948;2022-10-30T14:31:01;101765.19;;;19.05;67.63
59873;BME280;50750;51.636;4.948;2022-10-30T14:33:50;101769.25;;;19.05;67.59
59873;BME280;50750;51.636;4.948;2022-10-30T14:39:24;101780.06;;;19.06;67.79
59873;BME280;50750;51.636;4.948;2022-10-30T14:42:06;101776.66;;;19.06;67.77
59873;BME280;50750;51.636;4.948;2022-10-30T14:44:54;101775.24;;;19.06;67.74
59873;BME280;50750;51.636;4.948;2022-10-30T14:47:53;101778.94;;;19.07;67.77
59873;BME280;50750;51.636;4.948;2022-10-30T14:58:40;101801.02;;;19.09;67.75
59873;BME280;50750;51.636;4.948;2022-10-30T15:02:29;101802.81;;;19.09;67.58
59873;BME280;50750;51.636;4.948;2022-10-30T15:07:37;101825.92;;;19.08;67.81
59873;BME280;50750;51.636;4.948;2022-10-30T15:10:24;101825.27;;;19.07;67.83
59873;BME280;50750;51.636;4.948;2022-10-30T15:13:22;101823.45;;;19.08;67.82
59873;BME280;50750;51.636;4.948;2022-10-30T15:15:59;101833.54;;;19.08;67.83